sensor_id;sensor_type;location;lat;lon;timestamp;temperature;humidity
7077;DHT22;3579;48.956;9.154;2023-04-08T00:01:19;18.20;47.80
7077;DHT22;3579;48.956;9.154;2023-04-08T00:03:45;18.20;47.30
7077;DHT22;3579;48.956;9.154;2023-04-08T00:06:11;18.20;47.30
7077;DHT22;3579;48.956;9.154;2023-04-08T00:08:37;18.20;47.30
7077;DHT22;3579;48.956;9.154;2023-04-08T00:11:03;18.20;47.30
7077;DHT22;3579;48.956;9.154;2023-04-08T00:13:30;18.20;47.30
7077;DHT22;3579;48.956;9.154;2023-04-08T00:15:56;18.20;47.30
7077;DHT22;3579;48.956;9.154;2023-04-08T00:18:22;18.10;47.30
7077;DHT22;3579;48.956;9.154;2023-04-08T00:20:48;18.20;47.40
7077;DHT22;3579;48.956;9.154;2023-04-08T00:23:14;18.10;47.40
7077;DHT22;3579;48.956;9.154;2023-04-08T00:25:41;18.10;47.40
7077;DHT22;3579;48.956;9.154;2023-04-08T00:28:07;18.10;47.30
7077;DHT22;3579;48.956;9.154;2023-04-08T00:30:33;18.10;47.50
7077;DHT22;3579;48.956;9.154;2023-04-08T00:32:59;18.10;47.40
7077;DHT22;3579;48.956;9.154;2023-04-08T00:35:26;18.10;47.40
7077;DHT22;3579;48.956;9.154;2023-04-08T00:37:52;18.10;47.50
7077;DHT22;3579;48.956;9.154;2023-04-08T00:40:18;18.10;47.50
7077;DHT22;3579;48.956;9.154;2023-04-08T00:42:44;18.10;47.50
7077;DHT22;3579;48.956;9.154;2023-04-08T00:45:10;18.10;47.50
7077;DHT22;3579;48.956;9.154;2023-04-08T00:47:37;18.10;47.50
7077;DHT22;3579;48.956;9.154;2023-04-08T00:50:07;18.10;47.60
7077;DHT22;3579;48.956;9.154;2023-04-08T00:52:33;18.10;47.60
7077;DHT22;3579;48.956;9.154;2023-04-08T00:54:59;18.00;47.50
7077;DHT22;3579;48.956;9.154;2023-04-08T00:57:25;18.00;47.60
7077;DHT22;3579;48.956;9.154;2023-04-08T00:59:51;18.00;48.10
7077;DHT22;3579;48.956;9.154;2023-04-08T01:02:46;18.00;47.60
7077;DHT22;3579;48.956;9.154;2023-04-08T01:08:18;18.00;47.60
7077;DHT22;3579;48.956;9.154;2023-04-08T01:10:50;18.00;47.60
7077;DHT22;3579;48.956;9.154;2023-04-08T01:13:20;18.00;47.60
7077;DHT22;3579;48.956;9.154;2023-04-08T01:15:49;18.00;47.60
7077;DHT22;3579;48.956;9.154;2023-04-08T01:18:15;18.00;47.70
7077;DHT22;3579;48.956;9.154;2023-04-08T01:20:43;18.00;47.70
7077;DHT22;3579;48.956;9.154;2023-04-08T01:25:58;17.90;47.60
7077;DHT22;3579;48.956;9.154;2023-04-08T01:28:28;18.00;47.70
7077;DHT22;3579;48.956;9.154;2023-04-08T01:30:59;18.00;47.70
7077;DHT22;3579;48.956;9.154;2023-04-08T01:33:26;17.90;47.70
7077;DHT22;3579;48.956;9.154;2023-04-08T01:35:54;17.90;47.70
7077;DHT22;3579;48.956;9.154;2023-04-08T01:38:22;17.90;47.70
7077;DHT22;3579;48.956;9.154;2023-04-08T01:40:51;17.90;47.80
7077;DHT22;3579;48.956;9.154;2023-04-08T01:43:18;17.90;47.80
7077;DHT22;3579;48.956;9.154;2023-04-08T01:45:46;17.90;47.80
7077;DHT22;3579;48.956;9.154;2023-04-08T01:48:14;17.90;47.80
7077;DHT22;3579;48.956;9.154;2023-04-08T01:50:41;17.90;47.80
7077;DHT22;3579;48.956;9.154;2023-04-08T01:53:09;17.90;47.80
7077;DHT22;3579;48.956;9.154;2023-04-08T01:55:37;17.90;47.80
7077;DHT22;3579;48.956;9.154;2023-04-08T01:58:06;17.90;47.80
7077;DHT22;3579;48.956;9.154;2023-04-08T02:00:33;17.80;47.80
7077;DHT22;3579;48.956;9.154;2023-04-08T02:03:01;17.90;47.90
7077;DHT22;3579;48.956;9.154;2023-04-08T02:05:28;17.80;47.80
7077;DHT22;3579;48.956;9.154;2023-04-08T02:07:54;17.80;47.80
7077;DHT22;3579;48.956;9.154;2023-04-08T02:10:20;17.80;47.80
7077;DHT22;3579;48.956;9.154;2023-04-08T02:12:46;17.80;47.80
7077;DHT22;3579;48.956;9.154;2023-04-08T02:15:12;17.80;47.80
7077;DHT22;3579;48.956;9.154;2023-04-08T02:17:43;17.80;47.90
7077;DHT22;3579;48.956;9.154;2023-04-08T02:20:17;17.80;47.90
7077;DHT22;3579;48.956;9.154;2023-04-08T02:25:15;17.80;48.00
7077;DHT22;3579;48.956;9.154;2023-04-08T02:27:44;17.80;48.00
7077;DHT22;3579;48.956;9.154;2023-04-08T02:30:12;17.70;47.90
7077;DHT22;3579;48.956;9.154;2023-04-08T02:32:39;17.80;48.00
7077;DHT22;3579;48.956;9.154;2023-04-08T02:35:06;17.70;47.90
7077;DHT22;3579;48.956;9.154;2023-04-08T02:37:34;17.70;48.00
7077;DHT22;3579;48.956;9.154;2023-04-08T02:40:00;17.70;48.00
7077;DHT22;3579;48.956;9.154;2023-04-08T02:42:26;17.70;48.00
7077;DHT22;3579;48.956;9.154;2023-04-08T02:44:52;17.70;48.00
7077;DHT22;3579;48.956;9.154;2023-04-08T02:47:18;17.70;48.00
7077;DHT22;3579;48.956;9.154;2023-04-08T02:49:44;17.70;48.00
7077;DHT22;3579;48.956;9.154;2023-04-08T02:52:10;17.70;48.00
7077;DHT22;3579;48.956;9.154;2023-04-08T02:54:36;17.70;48.10
7077;DHT22;3579;48.956;9.154;2023-04-08T02:57:02;17.70;48.00
7077;DHT22;3579;48.956;9.154;2023-04-08T02:59:28;17.70;48.00
7077;DHT22;3579;48.956;9.154;2023-04-08T03:01:54;17.70;48.10
7077;DHT22;3579;48.956;9.154;2023-04-08T03:04:21;17.70;48.10
7077;DHT22;3579;48.956;9.154;2023-04-08T03:06:46;17.70;48.10
7077;DHT22;3579;48.956;9.154;2023-04-08T03:09:12;17.70;48.20
7077;DHT22;3579;48.956;9.154;2023-04-08T03:11:38;17.60;48.10
7077;DHT22;3579;48.956;9.154;2023-04-08T03:14:05;17.60;48.10
7077;DHT22;3579;48.956;9.154;2023-04-08T03:16:30;17.60;48.10
7077;DHT22;3579;48.956;9.154;2023-04-08T03:18:56;17.60;48.20
7077;DHT22;3579;48.956;9.154;2023-04-08T03:21:22;17.60;48.20
7077;DHT22;3579;48.956;9.154;2023-04-08T03:23:49;17.60;48.20
7077;DHT22;3579;48.956;9.154;2023-04-08T03:26:15;17.60;48.20
7077;DHT22;3579;48.956;9.154;2023-04-08T03:28:41;17.60;48.20
7077;DHT22;3579;48.956;9.154;2023-04-08T03:31:07;17.60;48.20
7077;DHT22;3579;48.956;9.154;2023-04-08T03:33:33;17.60;48.20
7077;DHT22;3579;48.956;9.154;2023-04-08T03:35:59;17.60;48.20
7077;DHT22;3579;48.956;9.154;2023-04-08T03:38:25;17.60;48.20
7077;DHT22;3579;48.956;9.154;2023-04-08T03:40:51;17.50;48.20
7077;DHT22;3579;48.956;9.154;2023-04-08T03:43:17;17.50;48.20
7077;DHT22;3579;48.956;9.154;2023-04-08T03:45:46;17.50;48.20
7077;DHT22;3579;48.956;9.154;2023-04-08T03:48:12;17.50;48.20
7077;DHT22;3579;48.956;9.154;2023-04-08T03:50:38;17.50;48.30
7077;DHT22;3579;48.956;9.154;2023-04-08T03:53:04;17.50;48.30
7077;DHT22;3579;48.956;9.154;2023-04-08T03:55:30;17.50;48.30
7077;DHT22;3579;48.956;9.154;2023-04-08T03:57:56;17.50;48.30
7077;DHT22;3579;48.956;9.154;2023-04-08T04:00:22;17.50;48.30
7077;DHT22;3579;48.956;9.154;2023-04-08T04:02:48;17.50;48.30
7077;DHT22;3579;48.956;9.154;2023-04-08T04:05:14;17.50;48.30
7077;DHT22;3579;48.956;9.154;2023-04-08T04:07:41;17.50;48.40
7077;DHT22;3579;48.956;9.154;2023-04-08T04:10:08;17.50;48.30
7077;DHT22;3579;48.956;9.154;2023-04-08T04:12:35;17.50;48.40
7077;DHT22;3579;48.956;9.154;2023-04-08T04:15:01;17.50;48.40
7077;DHT22;3579;48.956;9.154;2023-04-08T04:17:27;17.40;48.90
7077;DHT22;3579;48.956;9.154;2023-04-08T04:19:53;17.40;48.30
7077;DHT22;3579;48.956;9.154;2023-04-08T04:22:19;17.40;48.40
7077;DHT22;3579;48.956;9.154;2023-04-08T04:24:48;17.40;48.40
7077;DHT22;3579;48.956;9.154;2023-04-08T04:27:17;17.40;48.40
7077;DHT22;3579;48.956;9.154;2023-04-08T04:29:43;17.40;48.40
7077;DHT22;3579;48.956;9.154;2023-04-08T04:32:09;17.40;48.40
7077;DHT22;3579;48.956;9.154;2023-04-08T04:34:35;17.40;49.00
7077;DHT22;3579;48.956;9.154;2023-04-08T04:37:01;17.40;48.40
7077;DHT22;3579;48.956;9.154;2023-04-08T04:39:27;17.40;48.50
7077;DHT22;3579;48.956;9.154;2023-04-08T04:41:53;17.40;48.50
7077;DHT22;3579;48.956;9.154;2023-04-08T04:44:19;17.40;48.50
7077;DHT22;3579;48.956;9.154;2023-04-08T04:46:45;17.30;48.50
7077;DHT22;3579;48.956;9.154;2023-04-08T04:49:11;17.30;48.50
7077;DHT22;3579;48.956;9.154;2023-04-08T04:51:37;17.30;48.50
7077;DHT22;3579;48.956;9.154;2023-04-08T04:54:03;17.30;48.50
7077;DHT22;3579;48.956;9.154;2023-04-08T04:56:29;17.30;48.50
7077;DHT22;3579;48.956;9.154;2023-04-08T04:58:55;17.30;48.50
7077;DHT22;3579;48.956;9.154;2023-04-08T05:01:21;17.30;48.50
7077;DHT22;3579;48.956;9.154;2023-04-08T05:03:47;17.30;48.60
7077;DHT22;3579;48.956;9.154;2023-04-08T05:06:13;17.30;48.60
7077;DHT22;3579;48.956;9.154;2023-04-08T05:08:39;17.30;48.60
7077;DHT22;3579;48.956;9.154;2023-04-08T05:11:09;17.30;48.60
7077;DHT22;3579;48.956;9.154;2023-04-08T05:13:35;17.30;48.60
7077;DHT22;3579;48.956;9.154;2023-04-08T05:16:01;17.30;48.60
7077;DHT22;3579;48.956;9.154;2023-04-08T05:18:27;17.30;48.60
7077;DHT22;3579;48.956;9.154;2023-04-08T05:20:53;17.30;48.60
7077;DHT22;3579;48.956;9.154;2023-04-08T05:23:19;17.30;48.60
7077;DHT22;3579;48.956;9.154;2023-04-08T05:25:45;17.30;48.60
7077;DHT22;3579;48.956;9.154;2023-04-08T05:28:11;17.30;48.60
7077;DHT22;3579;48.956;9.154;2023-04-08T05:30:37;17.30;48.60
7077;DHT22;3579;48.956;9.154;2023-04-08T05:33:03;17.30;48.60
7077;DHT22;3579;48.956;9.154;2023-04-08T05:35:29;17.30;48.50
7077;DHT22;3579;48.956;9.154;2023-04-08T05:37:55;17.30;48.50
7077;DHT22;3579;48.956;9.154;2023-04-08T05:40:21;17.30;48.50
7077;DHT22;3579;48.956;9.154;2023-04-08T05:42:47;17.30;48.50
7077;DHT22;3579;48.956;9.154;2023-04-08T05:45:13;17.30;48.40
7077;DHT22;3579;48.956;9.154;2023-04-08T05:47:40;17.40;48.50
7077;DHT22;3579;48.956;9.154;2023-04-08T05:50:06;17.40;48.40
7077;DHT22;3579;48.956;9.154;2023-04-08T05:52:32;17.40;48.40
7077;DHT22;3579;48.956;9.154;2023-04-08T05:54:58;17.40;48.40
7077;DHT22;3579;48.956;9.154;2023-04-08T05:57:24;17.40;48.30
7077;DHT22;3579;48.956;9.154;2023-04-08T05:59:50;17.40;48.30
7077;DHT22;3579;48.956;9.154;2023-04-08T06:02:18;17.40;48.30
7077;DHT22;3579;48.956;9.154;2023-04-08T06:04:44;17.40;48.30
7077;DHT22;3579;48.956;9.154;2023-04-08T06:07:10;17.40;48.20
7077;DHT22;3579;48.956;9.154;2023-04-08T06:09:36;17.40;48.30
7077;DHT22;3579;48.956;9.154;2023-04-08T06:12:02;17.40;48.20
7077;DHT22;3579;48.956;9.154;2023-04-08T06:14:29;17.50;48.30
7077;DHT22;3579;48.956;9.154;2023-04-08T06:16:55;19.00;49.50
7077;DHT22;3579;48.956;9.154;2023-04-08T06:19:21;17.50;48.30
7077;DHT22;3579;48.956;9.154;2023-04-08T06:21:48;17.50;48.20
7077;DHT22;3579;48.956;9.154;2023-04-08T06:24:14;17.50;48.10
7077;DHT22;3579;48.956;9.154;2023-04-08T06:26:40;17.50;48.10
7077;DHT22;3579;48.956;9.154;2023-04-08T06:29:07;17.50;48.20
7077;DHT22;3579;48.956;9.154;2023-04-08T06:31:34;17.50;48.10
7077;DHT22;3579;48.956;9.154;2023-04-08T06:34:00;17.50;48.10
7077;DHT22;3579;48.956;9.154;2023-04-08T06:36:26;17.50;48.10
7077;DHT22;3579;48.956;9.154;2023-04-08T06:38:53;17.50;48.00
7077;DHT22;3579;48.956;9.154;2023-04-08T06:41:19;17.60;48.10
7077;DHT22;3579;48.956;9.154;2023-04-08T06:43:45;17.60;48.00
7077;DHT22;3579;48.956;9.154;2023-04-08T06:46:10;17.60;48.00
7077;DHT22;3579;48.956;9.154;2023-04-08T06:48:36;17.60;47.90
7077;DHT22;3579;48.956;9.154;2023-04-08T06:51:03;17.70;47.90
7077;DHT22;3579;48.956;9.154;2023-04-08T06:53:29;17.70;47.80
7077;DHT22;3579;48.956;9.154;2023-04-08T06:55:57;17.70;47.80
7077;DHT22;3579;48.956;9.154;2023-04-08T06:58:23;17.80;47.80
7077;DHT22;3579;48.956;9.154;2023-04-08T07:00:49;17.80;47.60
7077;DHT22;3579;48.956;9.154;2023-04-08T07:03:15;17.90;47.50
7077;DHT22;3579;48.956;9.154;2023-04-08T07:05:41;17.90;47.40
7077;DHT22;3579;48.956;9.154;2023-04-08T07:08:08;17.90;47.40
7077;DHT22;3579;48.956;9.154;2023-04-08T07:10:34;17.90;47.50
7077;DHT22;3579;48.956;9.154;2023-04-08T07:13:00;18.00;47.50
7077;DHT22;3579;48.956;9.154;2023-04-08T07:15:27;18.00;47.40
7077;DHT22;3579;48.956;9.154;2023-04-08T07:17:52;18.00;47.30
7077;DHT22;3579;48.956;9.154;2023-04-08T07:20:22;18.10;47.30
7077;DHT22;3579;48.956;9.154;2023-04-08T07:22:48;18.10;47.20
7077;DHT22;3579;48.956;9.154;2023-04-08T07:25:15;18.10;47.00
7077;DHT22;3579;48.956;9.154;2023-04-08T07:27:41;18.10;47.00
7077;DHT22;3579;48.956;9.154;2023-04-08T07:30:07;18.20;47.10
7077;DHT22;3579;48.956;9.154;2023-04-08T07:32:33;18.20;47.10
7077;DHT22;3579;48.956;9.154;2023-04-08T07:35:00;18.20;47.00
7077;DHT22;3579;48.956;9.154;2023-04-08T07:37:27;18.20;47.10
7077;DHT22;3579;48.956;9.154;2023-04-08T07:39:53;18.20;47.00
7077;DHT22;3579;48.956;9.154;2023-04-08T07:42:20;18.20;47.10
7077;DHT22;3579;48.956;9.154;2023-04-08T07:44:46;18.20;47.00
7077;DHT22;3579;48.956;9.154;2023-04-08T07:47:13;18.20;47.10
7077;DHT22;3579;48.956;9.154;2023-04-08T07:49:39;18.20;47.00
7077;DHT22;3579;48.956;9.154;2023-04-08T07:52:05;18.20;47.10
7077;DHT22;3579;48.956;9.154;2023-04-08T07:54:32;18.20;47.10
7077;DHT22;3579;48.956;9.154;2023-04-08T07:56:59;18.20;47.00
7077;DHT22;3579;48.956;9.154;2023-04-08T07:59:27;18.30;47.00
7077;DHT22;3579;48.956;9.154;2023-04-08T08:01:53;18.30;46.90
7077;DHT22;3579;48.956;9.154;2023-04-08T08:04:20;18.40;46.80
7077;DHT22;3579;48.956;9.154;2023-04-08T08:06:46;18.50;46.70
7077;DHT22;3579;48.956;9.154;2023-04-08T08:09:12;18.60;46.60
7077;DHT22;3579;48.956;9.154;2023-04-08T08:11:38;18.70;46.40
7077;DHT22;3579;48.956;9.154;2023-04-08T08:14:04;18.80;46.20
7077;DHT22;3579;48.956;9.154;2023-04-08T08:16:31;18.90;46.20
7077;DHT22;3579;48.956;9.154;2023-04-08T08:18:58;18.90;46.10
7077;DHT22;3579;48.956;9.154;2023-04-08T08:21:24;19.00;46.10
7077;DHT22;3579;48.956;9.154;2023-04-08T08:23:51;19.00;46.00
7077;DHT22;3579;48.956;9.154;2023-04-08T08:26:19;19.00;45.90
7077;DHT22;3579;48.956;9.154;2023-04-08T08:28:46;19.10;46.30
7077;DHT22;3579;48.956;9.154;2023-04-08T08:31:12;19.10;45.70
7077;DHT22;3579;48.956;9.154;2023-04-08T08:33:38;19.20;45.70
7077;DHT22;3579;48.956;9.154;2023-04-08T08:36:04;19.20;45.70
7077;DHT22;3579;48.956;9.154;2023-04-08T08:38:31;19.20;46.20
7077;DHT22;3579;48.956;9.154;2023-04-08T08:40:58;19.30;45.70
7077;DHT22;3579;48.956;9.154;2023-04-08T08:43:26;19.30;45.60
7077;DHT22;3579;48.956;9.154;2023-04-08T08:45:55;19.40;45.60
7077;DHT22;3579;48.956;9.154;2023-04-08T08:48:21;19.40;45.50
7077;DHT22;3579;48.956;9.154;2023-04-08T08:50:47;19.40;45.50
7077;DHT22;3579;48.956;9.154;2023-04-08T08:53:13;19.50;45.50
7077;DHT22;3579;48.956;9.154;2023-04-08T08:55:39;19.60;45.50
7077;DHT22;3579;48.956;9.154;2023-04-08T08:58:06;19.60;45.40
7077;DHT22;3579;48.956;9.154;2023-04-08T09:00:33;19.70;45.30
7077;DHT22;3579;48.956;9.154;2023-04-08T09:03:19;19.70;45.30
7077;DHT22;3579;48.956;9.154;2023-04-08T09:05:55;19.70;45.20
7077;DHT22;3579;48.956;9.154;2023-04-08T09:08:30;19.80;45.30
7077;DHT22;3579;48.956;9.154;2023-04-08T09:11:26;19.80;45.20
7077;DHT22;3579;48.956;9.154;2023-04-08T09:13:52;19.90;45.20
7077;DHT22;3579;48.956;9.154;2023-04-08T09:16:18;19.90;45.10
7077;DHT22;3579;48.956;9.154;2023-04-08T09:18:45;20.00;45.00
7077;DHT22;3579;48.956;9.154;2023-04-08T09:21:15;20.00;45.00
7077;DHT22;3579;48.956;9.154;2023-04-08T09:23:50;20.00;45.00
7077;DHT22;3579;48.956;9.154;2023-04-08T09:26:23;20.10;45.00
7077;DHT22;3579;48.956;9.154;2023-04-08T09:29:05;20.10;45.00
7077;DHT22;3579;48.956;9.154;2023-04-08T09:31:33;20.00;44.90
7077;DHT22;3579;48.956;9.154;2023-04-08T09:34:00;20.10;45.00
7077;DHT22;3579;48.956;9.154;2023-04-08T09:36:33;20.00;44.90
7077;DHT22;3579;48.956;9.154;2023-04-08T09:38:59;20.10;45.00
7077;DHT22;3579;48.956;9.154;2023-04-08T09:41:27;20.10;44.90
7077;DHT22;3579;48.956;9.154;2023-04-08T09:43:54;20.20;44.90
7077;DHT22;3579;48.956;9.154;2023-04-08T09:46:46;20.20;44.90
7077;DHT22;3579;48.956;9.154;2023-04-08T09:52:10;20.20;44.80
7077;DHT22;3579;48.956;9.154;2023-04-08T09:54:54;20.20;44.70
7077;DHT22;3579;48.956;9.154;2023-04-08T09:57:30;20.20;44.80
7077;DHT22;3579;48.956;9.154;2023-04-08T10:00:07;20.20;44.80
7077;DHT22;3579;48.956;9.154;2023-04-08T10:05:26;20.10;44.80
7077;DHT22;3579;48.956;9.154;2023-04-08T10:07:55;20.10;45.00
7077;DHT22;3579;48.956;9.154;2023-04-08T10:10:21;20.00;44.90
7077;DHT22;3579;48.956;9.154;2023-04-08T10:12:48;20.10;45.00
7077;DHT22;3579;48.956;9.154;2023-04-08T10:15:31;20.00;44.90
7077;DHT22;3579;48.956;9.154;2023-04-08T10:23:00;20.00;45.00
7077;DHT22;3579;48.956;9.154;2023-04-08T10:25:36;20.00;45.10
7077;DHT22;3579;48.956;9.154;2023-04-08T10:28:23;20.00;45.10
7077;DHT22;3579;48.956;9.154;2023-04-08T10:30:50;20.00;45.20
7077;DHT22;3579;48.956;9.154;2023-04-08T10:36:10;19.90;45.10
7077;DHT22;3579;48.956;9.154;2023-04-08T10:38:37;19.90;45.10
7077;DHT22;3579;48.956;9.154;2023-04-08T10:41:04;19.90;45.20
7077;DHT22;3579;48.956;9.154;2023-04-08T10:43:33;19.90;45.20
7077;DHT22;3579;48.956;9.154;2023-04-08T10:45:59;19.90;45.20
7077;DHT22;3579;48.956;9.154;2023-04-08T10:48:26;19.90;45.20
7077;DHT22;3579;48.956;9.154;2023-04-08T10:50:57;19.90;45.20
7077;DHT22;3579;48.956;9.154;2023-04-08T10:53:31;19.90;45.20
7077;DHT22;3579;48.956;9.154;2023-04-08T10:58:34;19.90;45.10
7077;DHT22;3579;48.956;9.154;2023-04-08T11:01:04;19.90;45.20
7077;DHT22;3579;48.956;9.154;2023-04-08T11:03:32;19.90;45.30
7077;DHT22;3579;48.956;9.154;2023-04-08T11:06:00;19.90;45.30
7077;DHT22;3579;48.956;9.154;2023-04-08T11:08:32;19.80;45.80
7077;DHT22;3579;48.956;9.154;2023-04-08T11:10:59;19.80;45.30
7077;DHT22;3579;48.956;9.154;2023-04-08T11:13:29;19.80;45.30
7077;DHT22;3579;48.956;9.154;2023-04-08T11:15:59;19.80;45.40
7077;DHT22;3579;48.956;9.154;2023-04-08T11:18:25;19.80;45.40
7077;DHT22;3579;48.956;9.154;2023-04-08T11:20:52;19.80;45.40
7077;DHT22;3579;48.956;9.154;2023-04-08T11:23:19;19.80;45.40
7077;DHT22;3579;48.956;9.154;2023-04-08T11:25:46;19.70;45.40
7077;DHT22;3579;48.956;9.154;2023-04-08T11:28:13;19.70;45.40
7077;DHT22;3579;48.956;9.154;2023-04-08T11:30:40;19.70;45.50
7077;DHT22;3579;48.956;9.154;2023-04-08T11:33:07;19.70;45.50
7077;DHT22;3579;48.956;9.154;2023-04-08T11:35:33;19.70;45.60
7077;DHT22;3579;48.956;9.154;2023-04-08T11:38:01;19.70;46.10
7077;DHT22;3579;48.956;9.154;2023-04-08T11:40:29;19.60;45.50
7077;DHT22;3579;48.956;9.154;2023-04-08T11:42:55;19.70;45.60
7077;DHT22;3579;48.956;9.154;2023-04-08T11:45:21;19.70;45.60
7077;DHT22;3579;48.956;9.154;2023-04-08T11:47:48;19.60;45.50
7077;DHT22;3579;48.956;9.154;2023-04-08T11:50:24;19.60;45.60
7077;DHT22;3579;48.956;9.154;2023-04-08T11:52:52;19.60;45.50
7077;DHT22;3579;48.956;9.154;2023-04-08T11:55:26;19.60;45.50
7077;DHT22;3579;48.956;9.154;2023-04-08T11:57:54;19.60;45.50
7077;DHT22;3579;48.956;9.154;2023-04-08T12:00:23;19.60;45.60
7077;DHT22;3579;48.956;9.154;2023-04-08T12:02:50;19.70;45.60
7077;DHT22;3579;48.956;9.154;2023-04-08T12:05:17;19.70;45.60
7077;DHT22;3579;48.956;9.154;2023-04-08T12:07:43;19.70;45.60
7077;DHT22;3579;48.956;9.154;2023-04-08T12:10:10;19.70;45.60
7077;DHT22;3579;48.956;9.154;2023-04-08T12:12:37;19.70;45.50
7077;DHT22;3579;48.956;9.154;2023-04-08T12:15:03;19.70;45.40
7077;DHT22;3579;48.956;9.154;2023-04-08T12:17:30;19.70;45.40
7077;DHT22;3579;48.956;9.154;2023-04-08T12:19:56;19.80;45.40
7077;DHT22;3579;48.956;9.154;2023-04-08T12:22:22;19.80;46.00
7077;DHT22;3579;48.956;9.154;2023-04-08T12:24:48;19.80;45.30
7077;DHT22;3579;48.956;9.154;2023-04-08T12:27:14;19.80;45.30
7077;DHT22;3579;48.956;9.154;2023-04-08T12:29:40;19.80;45.30
7077;DHT22;3579;48.956;9.154;2023-04-08T12:32:06;19.90;45.20
7077;DHT22;3579;48.956;9.154;2023-04-08T12:34:32;19.90;45.20
7077;DHT22;3579;48.956;9.154;2023-04-08T12:36:59;20.00;45.20
7077;DHT22;3579;48.956;9.154;2023-04-08T12:39:25;20.00;45.20
7077;DHT22;3579;48.956;9.154;2023-04-08T12:41:51;20.00;45.10
7077;DHT22;3579;48.956;9.154;2023-04-08T12:44:17;20.00;45.10
7077;DHT22;3579;48.956;9.154;2023-04-08T12:46:44;20.10;45.10
7077;DHT22;3579;48.956;9.154;2023-04-08T12:49:10;20.10;45.00
7077;DHT22;3579;48.956;9.154;2023-04-08T12:51:37;20.10;45.00
7077;DHT22;3579;48.956;9.154;2023-04-08T12:54:03;20.10;45.00
7077;DHT22;3579;48.956;9.154;2023-04-08T12:56:30;20.10;45.00
7077;DHT22;3579;48.956;9.154;2023-04-08T12:58:58;20.10;44.90
7077;DHT22;3579;48.956;9.154;2023-04-08T13:01:24;20.10;44.90
7077;DHT22;3579;48.956;9.154;2023-04-08T13:03:50;20.20;44.90
7077;DHT22;3579;48.956;9.154;2023-04-08T13:06:16;20.20;44.90
7077;DHT22;3579;48.956;9.154;2023-04-08T13:08:42;20.20;44.90
7077;DHT22;3579;48.956;9.154;2023-04-08T13:11:08;20.20;44.80
7077;DHT22;3579;48.956;9.154;2023-04-08T13:13:35;20.20;44.90
7077;DHT22;3579;48.956;9.154;2023-04-08T13:16:01;20.20;45.40
7077;DHT22;3579;48.956;9.154;2023-04-08T13:18:28;20.20;44.90
7077;DHT22;3579;48.956;9.154;2023-04-08T13:20:55;20.20;44.80
7077;DHT22;3579;48.956;9.154;2023-04-08T13:23:21;20.20;44.90
7077;DHT22;3579;48.956;9.154;2023-04-08T13:25:47;20.10;44.90
7077;DHT22;3579;48.956;9.154;2023-04-08T13:28:13;20.10;45.50
7077;DHT22;3579;48.956;9.154;2023-04-08T13:30:39;20.10;44.90
7077;DHT22;3579;48.956;9.154;2023-04-08T13:33:05;20.10;45.00
7077;DHT22;3579;48.956;9.154;2023-04-08T13:35:31;20.10;45.00
7077;DHT22;3579;48.956;9.154;2023-04-08T13:37:57;20.10;45.00
7077;DHT22;3579;48.956;9.154;2023-04-08T13:40:23;20.00;45.60
7077;DHT22;3579;48.956;9.154;2023-04-08T13:42:50;20.10;45.10
7077;DHT22;3579;48.956;9.154;2023-04-08T13:45:16;20.10;45.00
7077;DHT22;3579;48.956;9.154;2023-04-08T13:47:42;20.10;45.00
7077;DHT22;3579;48.956;9.154;2023-04-08T13:50:08;20.10;45.00
7077;DHT22;3579;48.956;9.154;2023-04-08T13:52:34;20.20;45.00
7077;DHT22;3579;48.956;9.154;2023-04-08T13:55:00;20.20;45.00
7077;DHT22;3579;48.956;9.154;2023-04-08T13:57:26;20.20;44.90
7077;DHT22;3579;48.956;9.154;2023-04-08T13:59:52;20.20;45.40
7077;DHT22;3579;48.956;9.154;2023-04-08T14:02:18;20.20;44.80
7077;DHT22;3579;48.956;9.154;2023-04-08T14:04:44;20.20;44.80
7077;DHT22;3579;48.956;9.154;2023-04-08T14:07:13;20.30;44.90
7077;DHT22;3579;48.956;9.154;2023-04-08T14:09:39;20.20;44.80
7077;DHT22;3579;48.956;9.154;2023-04-08T14:12:06;20.20;44.80
7077;DHT22;3579;48.956;9.154;2023-04-08T14:14:31;20.20;45.40
7077;DHT22;3579;48.956;9.154;2023-04-08T14:16:57;20.20;44.90
7077;DHT22;3579;48.956;9.154;2023-04-08T14:19:23;20.10;44.90
7077;DHT22;3579;48.956;9.154;2023-04-08T14:21:49;20.10;44.90
7077;DHT22;3579;48.956;9.154;2023-04-08T14:24:16;20.10;45.00
7077;DHT22;3579;48.956;9.154;2023-04-08T14:26:42;20.10;45.00
7077;DHT22;3579;48.956;9.154;2023-04-08T14:29:08;20.10;45.10
7077;DHT22;3579;48.956;9.154;2023-04-08T14:31:34;20.10;45.10
7077;DHT22;3579;48.956;9.154;2023-04-08T14:34:01;20.10;45.10
7077;DHT22;3579;48.956;9.154;2023-04-08T14:36:27;20.10;45.20
7077;DHT22;3579;48.956;9.154;2023-04-08T14:38:54;20.10;45.20
7077;DHT22;3579;48.956;9.154;2023-04-08T14:41:20;20.00;45.10
7077;DHT22;3579;48.956;9.154;2023-04-08T14:43:47;20.00;45.10
7077;DHT22;3579;48.956;9.154;2023-04-08T14:46:13;20.00;45.20
7077;DHT22;3579;48.956;9.154;2023-04-08T14:48:39;20.00;45.20
7077;DHT22;3579;48.956;9.154;2023-04-08T14:51:05;20.00;45.20
7077;DHT22;3579;48.956;9.154;2023-04-08T14:53:32;20.00;45.20
7077;DHT22;3579;48.956;9.154;2023-04-08T14:55:58;20.00;45.20
7077;DHT22;3579;48.956;9.154;2023-04-08T14:58:24;20.00;45.20
7077;DHT22;3579;48.956;9.154;2023-04-08T15:00:51;20.00;45.30
7077;DHT22;3579;48.956;9.154;2023-04-08T15:03:17;20.00;45.30
7077;DHT22;3579;48.956;9.154;2023-04-08T15:05:44;19.90;45.20
7077;DHT22;3579;48.956;9.154;2023-04-08T15:08:10;19.90;45.20
7077;DHT22;3579;48.956;9.154;2023-04-08T15:10:36;19.90;45.30
7077;DHT22;3579;48.956;9.154;2023-04-08T15:13:02;19.90;45.40
7077;DHT22;3579;48.956;9.154;2023-04-08T15:15:28;19.80;45.30
7077;DHT22;3579;48.956;9.154;2023-04-08T15:17:54;19.80;45.30
7077;DHT22;3579;48.956;9.154;2023-04-08T15:20:20;19.80;45.90
7077;DHT22;3579;48.956;9.154;2023-04-08T15:22:47;19.80;45.40
7077;DHT22;3579;48.956;9.154;2023-04-08T15:25:13;19.80;45.50
7077;DHT22;3579;48.956;9.154;2023-04-08T15:27:40;19.70;45.50
7077;DHT22;3579;48.956;9.154;2023-04-08T15:30:06;19.70;45.50
7077;DHT22;3579;48.956;9.154;2023-04-08T15:32:32;19.70;45.60
7077;DHT22;3579;48.956;9.154;2023-04-08T15:34:59;19.70;45.60
7077;DHT22;3579;48.956;9.154;2023-04-08T15:37:25;19.60;45.50
7077;DHT22;3579;48.956;9.154;2023-04-08T15:39:51;19.60;45.60
7077;DHT22;3579;48.956;9.154;2023-04-08T15:42:21;19.70;45.60
7077;DHT22;3579;48.956;9.154;2023-04-08T15:44:47;19.60;45.60
7077;DHT22;3579;48.956;9.154;2023-04-08T15:47:13;19.60;45.60
7077;DHT22;3579;48.956;9.154;2023-04-08T15:49:39;19.60;45.60
7077;DHT22;3579;48.956;9.154;2023-04-08T15:52:05;19.60;45.70
7077;DHT22;3579;48.956;9.154;2023-04-08T15:54:35;19.60;45.70
7077;DHT22;3579;48.956;9.154;2023-04-08T15:57:01;19.60;45.90
7077;DHT22;3579;48.956;9.154;2023-04-08T15:59:30;19.60;45.70
7077;DHT22;3579;48.956;9.154;2023-04-08T16:01:57;19.60;45.80
7077;DHT22;3579;48.956;9.154;2023-04-08T16:04:23;19.60;45.80
7077;DHT22;3579;48.956;9.154;2023-04-08T16:06:49;19.60;45.80
7077;DHT22;3579;48.956;9.154;2023-04-08T16:09:15;19.50;45.80
7077;DHT22;3579;48.956;9.154;2023-04-08T16:11:43;19.50;45.80
7077;DHT22;3579;48.956;9.154;2023-04-08T16:14:09;19.50;45.90
7077;DHT22;3579;48.956;9.154;2023-04-08T16:16:35;19.40;45.80
7077;DHT22;3579;48.956;9.154;2023-04-08T16:19:03;19.40;45.90
7077;DHT22;3579;48.956;9.154;2023-04-08T16:21:30;19.40;46.00
7077;DHT22;3579;48.956;9.154;2023-04-08T16:23:56;19.40;46.00
7077;DHT22;3579;48.956;9.154;2023-04-08T16:26:22;19.30;46.00